Time;durP1;ratioP1;P1;durP2;ratioP2;P2;SDS_P1;SDS_P2;PMS_P1;PMS_P2;Temp;Humidity;BMP_temperature;BMP_pressure;BME280_temperature;BME280_humidity;BME280_pressure;Samples;Min_cycle;Max_cycle;Signal;HPM_P1;HPM_P2
2022/12/15 00:38:58;;;;;;;55.20;31.87;;;-4.10;92.90;;;;;;5018458;28;20396;-77
2022/12/15 00:41:24;;;;;;;53.53;30.50;;;-4.10;93.30;;;;;;5018761;28;20769;-77
2022/12/15 00:43:50;;;;;;;51.20;29.90;;;-4.10;92.90;;;;;;5019345;28;20562;-76
2022/12/15 00:48:59;;;;;;;53.72;31.15;;;-4.20;91.40;;;;;;5020586;28;20500;-78
2022/12/15 01:21:38;;;;;;;54.08;30.60;;;-4.20;89.50;;;;;;5022874;28;20439;-77
2022/12/15 01:24:04;;;;;;;54.77;31.23;;;-4.20;90.10;;;;;;5019392;28;20401;-77
2022/12/15 01:26:30;;;;;;;51.30;31.08;;;-4.20;90.50;;;;;;5018731;28;20413;-77
2022/12/15 01:28:55;;;;;;;57.27;31.73;;;-4.20;91.20;;;;;;5022744;28;20999;-77
2022/12/15 01:31:21;;;;;;;55.00;32.17;;;-4.20;91.90;;;;;;5023279;28;20392;-76
2022/12/15 01:33:46;;;;;;;54.50;32.42;;;-4.10;92.70;;;;;;5024223;28;20385;-79
2022/12/15 01:36:13;;;;;;;60.92;32.05;;;-4.00;93.30;;;;;;5021847;28;20392;-78
2022/12/15 01:38:38;;;;;;;54.08;32.40;;;-4.00;93.60;;;;;;5029921;28;20409;-77
2022/12/15 01:41:06;;;;;;;54.93;31.60;;;-4.00;92.90;;;;;;5027710;28;20423;-77
2022/12/15 01:43:35;;;;;;;57.35;31.50;;;-4.00;93.30;;;;;;5029609;28;20390;-77
2022/12/15 01:46:07;;;;;;;63.67;34.03;;;-4.00;94.00;;;;;;5034846;28;20385;-77
2022/12/15 01:48:41;;;;;;;61.45;33.95;;;-3.90;95.00;;;;;;5035978;28;20428;-75
2022/12/15 01:51:20;;;;;;;60.78;33.05;;;-3.80;95.60;;;;;;5036308;28;20401;-75
2022/12/15 01:54:00;;;;;;;57.33;32.90;;;-3.70;93.70;;;;;;5036655;28;20399;-75
2022/12/15 01:56:28;;;;;;;59.90;33.30;;;-3.70;93.80;;;;;;5037146;28;20505;-77
2022/12/15 01:58:57;;;;;;;62.72;34.00;;;-3.60;93.90;;;;;;5026784;28;20603;-78
2022/12/15 02:01:23;;;;;;;66.20;35.20;;;-3.50;94.10;;;;;;5022555;28;20384;-77
2022/12/15 02:03:49;;;;;;;71.93;35.43;;;-3.50;94.60;;;;;;5020749;28;20469;-78
2022/12/15 02:06:15;;;;;;;72.35;36.45;;;-3.50;94.50;;;;;;5021034;28;20411;-76
2022/12/15 02:08:43;;;;;;;74.82;37.78;;;-3.40;94.40;;;;;;5020307;28;20440;-77
2022/12/15 02:11:44;;;;;;;77.95;38.10;;;-3.40;94.20;;;;;;5023523;28;20393;-77
2022/12/15 02:14:13;;;;;;;78.90;37.95;;;-3.40;93.30;;;;;;5026299;28;20377;-77
2022/12/15 02:17:05;;;;;;;84.10;37.25;;;-3.40;93.30;;;;;;5023628;28;20556;-76
2022/12/15 02:19:56;;;;;;;76.07;38.10;;;-3.50;92.50;;;;;;5025244;28;20389;-77
2022/12/15 02:22:54;;;;;;;79.78;36.95;;;-3.60;93.20;;;;;;5022884;28;20491;-77
2022/12/15 02:25:37;;;;;;;75.88;36.40;;;-3.50;94.70;;;;;;5025184;28;20499;-78
2022/12/15 02:28:22;;;;;;;87.90;38.38;;;-3.50;95.00;;;;;;5024682;28;20439;-77
2022/12/15 02:34:07;;;;;;;75.22;38.15;;;-3.50;96.40;;;;;;5026651;28;20407;-75
2022/12/15 02:36:37;;;;;;;75.35;38.08;;;-3.40;97.00;;;;;;5029797;28;20385;-76
2022/12/15 02:39:04;;;;;;;80.88;37.92;;;-3.40;98.00;;;;;;5027544;28;20822;-76
2022/12/15 02:41:32;;;;;;;71.97;36.47;;;-3.40;96.50;;;;;;5024988;28;20412;-77
2022/12/15 02:43:59;;;;;;;83.30;37.80;;;-3.40;96.30;;;;;;5067294;23;20526;-73
2022/12/15 02:47:02;;;;;;;79.50;37.47;;;-3.30;95.10;;;;;;5070955;28;20372;-73
2022/12/15 02:49:45;;;;;;;91.13;38.58;;;-3.30;94.70;;;;;;5071082;28;20396;-73
2022/12/15 02:52:34;;;;;;;92.82;40.67;;;-3.20;93.50;;;;;;5070633;28;20376;-73
2022/12/15 02:55:30;;;;;;;83.00;38.57;;;-3.20;93.70;;;;;;5051075;28;20461;-70
2022/12/15 02:58:01;;;;;;;81.45;37.88;;;-3.30;94.10;;;;;;5050865;28;20381;-71
2022/12/15 03:00:29;;;;;;;88.53;38.80;;;-3.30;94.30;;;;;;5051199;28;20484;-73
2022/12/15 03:02:55;;;;;;;83.78;38.33;;;-3.30;93.80;;;;;;5050308;28;20883;-73
2022/12/15 03:05:23;;;;;;;88.17;39.83;;;-3.20;93.40;;;;;;5052376;28;20382;-73
2022/12/15 03:07:50;;;;;;;90.28;40.33;;;-3.20;92.40;;;;;;5053388;28;20395;-72
2022/12/15 03:10:18;;;;;;;85.35;38.20;;;-3.20;91.80;;;;;;5052858;28;20793;-73
2022/12/15 03:12:44;;;;;;;78.32;39.22;;;-3.20;92.40;;;;;;5050659;28;20447;-73
2022/12/15 03:15:10;;;;;;;79.78;38.13;;;-3.20;92.80;;;;;;5052703;28;20382;-73
2022/12/15 03:17:37;;;;;;;79.80;37.65;;;-3.20;92.60;;;;;;5052513;28;20796;-73
2022/12/15 03:20:03;;;;;;;77.88;37.88;;;-3.20;92.30;;;;;;5052942;28;20965;-73
2022/12/15 03:22:29;;;;;;;81.68;39.85;;;-3.10;92.00;;;;;;5051473;28;20754;-73
2022/12/15 03:24:54;;;;;;;81.10;39.00;;;-3.20;91.80;;;;;;5051728;28;20381;-73
2022/12/15 03:27:20;;;;;;;82.10;37.60;;;-3.20;93.90;;;;;;5058490;28;20397;-73
2022/12/15 03:29:46;;;;;;;81.97;38.45;;;-3.20;93.40;;;;;;5051278;28;20444;-73
2022/12/15 03:32:11;;;;;;;85.57;39.77;;;-3.10;95.10;;;;;;5049724;28;20385;-73
2022/12/15 03:34:37;;;;;;;70.97;36.37;;;-3.10;93.30;;;;;;5050501;28;20380;-73
2022/12/15 03:37:02;;;;;;;81.10;37.22;;;-3.10;94.50;;;;;;5050297;28;20378;-73
2022/12/15 03:39:28;;;;;;;74.20;36.63;;;-3.10;92.60;;;;;;5050265;28;20996;-73
2022/12/15 03:41:53;;;;;;;78.97;37.93;;;-3.10;91.60;;;;;;5049942;28;20892;-73
2022/12/15 03:44:19;;;;;;;85.03;39.00;;;-3.10;91.60;;;;;;5050206;28;20412;-73
2022/12/15 03:46:45;;;;;;;90.93;39.30;;;-3.10;91.50;;;;;;5050221;28;20393;-73
2022/12/15 03:49:10;;;;;;;86.17;38.60;;;-3.20;92.60;;;;;;5050126;28;20817;-73
2022/12/15 03:51:36;;;;;;;84.97;38.47;;;-3.10;93.20;;;;;;5050850;28;21016;-73
2022/12/15 03:54:02;;;;;;;81.18;37.75;;;-3.10;92.80;;;;;;5054439;28;20469;-73
2022/12/15 03:56:27;;;;;;;82.28;38.67;;;-3.10;93.60;;;;;;5054457;28;20980;-73
2022/12/15 03:58:53;;;;;;;89.87;40.87;;;-3.00;94.50;;;;;;5054625;28;20912;-73
2022/12/15 04:01:26;;;;;;;88.53;40.20;;;-2.90;95.00;;;;;;5054406;28;20439;-73
2022/12/15 04:03:52;;;;;;;81.25;37.88;;;-3.00;94.80;;;;;;5061692;28;20472;-72
2022/12/15 04:06:18;;;;;;;88.77;40.27;;;-2.90;92.50;;;;;;5060759;28;20436;-71
2022/12/15 04:08:43;;;;;;;78.38;38.80;;;-2.90;91.60;;;;;;5054274;28;20737;-73
2022/12/15 04:11:09;;;;;;;84.35;38.30;;;-2.90;90.20;;;;;;5053729;28;20464;-72
2022/12/15 04:13:34;;;;;;;85.17;38.27;;;-2.90;91.10;;;;;;5054135;28;20527;-72
2022/12/15 04:16:04;;;;;;;77.67;38.33;;;-2.90;91.00;;;;;;5052978;28;20390;-72
2022/12/15 04:18:29;;;;;;;80.20;37.25;;;-2.80;89.20;;;;;;5054577;28;20389;-73
2022/12/15 04:20:55;;;;;;;84.03;37.75;;;-2.70;89.10;;;;;;5053894;28;20388;-72
2022/12/15 04:23:21;;;;;;;80.93;39.80;;;-2.70;89.70;;;;;;5054414;28;20385;-72
2022/12/15 05:31:53;;;;;;;95.90;42.90;;;-2.60;86.30;;;;;;5052045;28;20474;-72
2022/12/15 05:34:25;;;;;;;92.47;40.40;;;-2.60;86.00;;;;;;5053330;28;20396;-73
2022/12/15 05:36:52;;;;;;;113.35;44.72;;;-2.70;86.30;;;;;;5052958;28;20386;-73
2022/12/15 05:39:18;;;;;;;115.80;45.33;;;-2.60;85.90;;;;;;5053766;28;20389;-72
2022/12/15 05:41:43;;;;;;;108.75;45.67;;;-2.70;85.80;;;;;;5053379;28;20389;-72
2022/12/15 05:44:09;;;;;;;107.60;44.28;;;-2.70;86.70;;;;;;5051088;28;20424;-73
2022/12/15 05:46:35;;;;;;;108.70;45.70;;;-2.70;89.40;;;;;;5052202;28;20475;-73
2022/12/15 05:49:08;;;;;;;103.72;46.38;;;-2.70;89.30;;;;;;5051979;28;20453;-73
2022/12/15 05:51:37;;;;;;;99.28;44.75;;;-2.60;89.30;;;;;;5051151;28;20841;-72
2022/12/15 05:54:02;;;;;;;106.32;43.80;;;-2.60;89.30;;;;;;5052640;28;20381;-72
2022/12/15 05:56:28;;;;;;;111.67;47.00;;;-2.70;89.80;;;;;;5052619;28;20430;-73
2022/12/15 05:58:56;;;;;;;111.50;47.25;;;-2.80;90.30;;;;;;5052561;28;20412;-72
2022/12/15 06:01:23;;;;;;;104.75;48.30;;;-2.90;91.80;;;;;;5051591;28;20435;-73
2022/12/15 06:03:48;;;;;;;112.75;48.40;;;-2.90;92.80;;;;;;5051581;28;20393;-72
2022/12/15 06:06:14;;;;;;;115.65;49.05;;;-2.90;94.60;;;;;;5051578;28;20385;-72
2022/12/15 06:08:41;;;;;;;120.87;50.30;;;-2.80;96.70;;;;;;5050101;28;20438;-73
2022/12/15 06:11:10;;;;;;;132.90;50.37;;;-2.70;98.20;;;;;;5051283;28;20450;-72
2022/12/15 06:13:36;;;;;;;116.32;49.85;;;-2.70;98.00;;;;;;5051444;28;20415;-72
2022/12/15 06:16:08;;;;;;;128.70;50.70;;;-2.70;98.00;;;;;;5050536;28;20439;-74
2022/12/15 06:18:37;;;;;;;124.85;50.53;;;-2.70;97.10;;;;;;5051928;28;20385;-72
2022/12/15 06:21:05;;;;;;;112.77;48.30;;;-2.70;96.00;;;;;;5049366;28;20397;-72
2022/12/15 06:23:31;;;;;;;112.07;48.00;;;-2.70;97.40;;;;;;5051542;28;20424;-74
2022/12/15 06:25:57;;;;;;;115.20;49.33;;;-2.70;95.50;;;;;;5051033;28;20393;-73
2022/12/15 06:28:23;;;;;;;118.47;48.47;;;-2.70;94.20;;;;;;5050997;28;20468;-72
2022/12/15 06:30:54;;;;;;;115.53;49.38;;;-2.70;94.90;;;;;;5051045;28;20806;-72
2022/12/15 06:33:21;;;;;;;129.85;50.65;;;-2.70;94.80;;;;;;5051069;28;20377;-73
2022/12/15 06:35:47;;;;;;;128.80;51.13;;;-2.80;94.40;;;;;;5051101;28;20386;-73
2022/12/15 06:38:13;;;;;;;127.15;53.00;;;-2.70;95.70;;;;;;5049740;28;20386;-72
2022/12/15 06:40:39;;;;;;;128.00;53.17;;;-2.70;96.40;;;;;;5050860;28;20908;-73
2022/12/15 06:43:08;;;;;;;125.30;51.58;;;-2.50;94.80;;;;;;5050310;28;20400;-73
2022/12/15 06:45:34;;;;;;;117.20;50.80;;;-2.60;94.20;;;;;;5051069;28;20381;-72
2022/12/15 06:48:00;;;;;;;117.43;49.85;;;-2.50;94.90;;;;;;5050606;28;20520;-73
2022/12/15 06:50:26;;;;;;;111.28;48.70;;;-2.50;95.00;;;;;;5050879;28;20459;-73
2022/12/15 06:52:51;;;;;;;110.28;47.70;;;-2.50;91.60;;;;;;5050450;28;20390;-72
2022/12/15 06:55:17;;;;;;;108.43;46.93;;;-2.60;91.20;;;;;;5051036;28;20381;-73
2022/12/15 06:57:43;;;;;;;106.35;45.95;;;-2.70;91.10;;;;;;5051329;28;20579;-73
2022/12/15 07:00:09;;;;;;;95.68;42.08;;;-2.80;91.60;;;;;;5051117;28;20393;-73
2022/12/15 07:02:35;;;;;;;86.07;40.42;;;-2.90;91.40;;;;;;5050170;28;20385;-72
2022/12/15 07:05:01;;;;;;;74.13;37.73;;;-3.00;90.50;;;;;;5050051;28;20393;-74
2022/12/15 07:07:27;;;;;;;74.85;36.97;;;-3.00;89.80;;;;;;5050840;28;20388;-72
2022/12/15 07:09:52;;;;;;;75.00;37.70;;;-3.10;88.00;;;;;;5050575;28;20413;-73
2022/12/15 07:12:18;;;;;;;76.00;36.30;;;-3.20;89.60;;;;;;5049948;28;20483;-73
2022/12/15 07:14:43;;;;;;;81.43;38.03;;;-3.20;91.70;;;;;;5050421;28;20382;-73
2022/12/15 07:17:12;;;;;;;71.55;35.83;;;-3.30;92.60;;;;;;5051089;28;20461;-74
2022/12/15 07:19:37;;;;;;;74.30;35.60;;;-3.20;93.20;;;;;;5050701;28;20439;-72
2022/12/15 07:22:03;;;;;;;72.73;35.80;;;-3.20;91.40;;;;;;5050040;28;20394;-72
2022/12/15 07:24:29;;;;;;;71.03;35.30;;;-3.30;91.40;;;;;;5051040;28;20395;-73
2022/12/15 07:26:54;;;;;;;71.38;36.10;;;-3.40;91.30;;;;;;5053520;28;20404;-73
2022/12/15 07:29:20;;;;;;;76.83;35.90;;;-3.40;92.00;;;;;;5054471;28;20492;-72
2022/12/15 07:31:45;;;;;;;76.87;36.37;;;-3.40;92.90;;;;;;5051947;28;20389;-73
2022/12/15 07:34:11;;;;;;;74.32;36.65;;;-3.30;93.40;;;;;;5051230;28;20865;-73
2022/12/15 07:36:37;;;;;;;82.75;37.45;;;-3.20;93.80;;;;;;5055290;28;20917;-72
2022/12/15 07:39:04;;;;;;;82.27;36.87;;;-3.10;93.20;;;;;;5055781;28;20397;-72
2022/12/15 07:41:30;;;;;;;80.68;36.80;;;-3.10;92.90;;;;;;5050818;28;20874;-73
2022/12/15 07:43:56;;;;;;;89.25;38.70;;;-3.10;94.00;;;;;;5049731;28;20402;-73
2022/12/15 07:46:22;;;;;;;87.40;38.30;;;-3.00;94.80;;;;;;5050390;28;20472;-72
2022/12/15 07:48:48;;;;;;;89.38;37.80;;;-3.00;93.90;;;;;;5050082;28;20429;-73
2022/12/15 07:51:14;;;;;;;104.33;48.67;;;-3.00;93.90;;;;;;5049911;28;21043;-73
2022/12/15 07:53:39;;;;;;;86.03;39.30;;;-3.10;92.50;;;;;;5049948;28;20389;-73
2022/12/15 07:56:05;;;;;;;78.93;36.15;;;-3.10;92.50;;;;;;5050989;28;20878;-74
2022/12/15 07:58:31;;;;;;;75.90;37.03;;;-3.10;92.20;;;;;;5050514;28;20463;-73
2022/12/15 08:01:02;;;;;;;82.38;36.50;;;-3.10;90.80;;;;;;5049916;28;20400;-72
2022/12/15 08:03:28;;;;;;;79.32;36.30;;;-3.20;90.90;;;;;;5049919;28;20925;-72
2022/12/15 08:05:54;;;;;;;74.20;35.17;;;-3.20;92.50;;;;;;5041691;28;20425;-74
2022/12/15 08:08:21;;;;;;;83.40;36.88;;;-3.20;91.70;;;;;;5029879;28;20854;-72
2022/12/15 08:10:46;;;;;;;67.05;34.60;;;-3.20;91.80;;;;;;5039772;28;20389;-72
2022/12/15 08:13:13;;;;;;;73.25;35.42;;;-3.20;92.00;;;;;;5048993;28;20389;-71
2022/12/15 08:15:39;;;;;;;72.07;34.83;;;-3.10;92.30;;;;;;5050151;28;20673;-72
2022/12/15 08:18:06;;;;;;;72.63;34.75;;;-3.10;91.80;;;;;;5049596;28;20385;-73
2022/12/15 08:20:32;;;;;;;71.07;36.15;;;-3.10;89.60;;;;;;5049645;28;20937;-72
2022/12/15 08:22:58;;;;;;;66.78;34.70;;;-3.10;90.30;;;;;;5049198;28;20401;-73
2022/12/15 08:25:24;;;;;;;78.93;37.80;;;-3.10;90.20;;;;;;5048802;28;20839;-73
2022/12/15 08:27:51;;;;;;;76.80;37.20;;;-3.00;91.40;;;;;;5049386;28;20400;-71
2022/12/15 08:30:17;;;;;;;78.97;38.80;;;-2.90;89.70;;;;;;5049634;28;20414;-72
2022/12/15 08:32:43;;;;;;;78.03;39.58;;;-2.70;91.00;;;;;;5046748;28;20480;-70
2022/12/15 08:35:09;;;;;;;83.85;40.17;;;-2.60;90.30;;;;;;5046772;28;20801;-72
2022/12/15 08:37:35;;;;;;;93.78;44.53;;;-2.60;86.90;;;;;;5046328;28;20393;-71
2022/12/15 08:40:00;;;;;;;94.50;44.30;;;-2.40;84.40;;;;;;5048796;28;20477;-71
2022/12/15 08:42:26;;;;;;;91.40;43.58;;;-2.40;86.60;;;;;;5050165;28;20713;-72
2022/12/15 08:44:52;;;;;;;90.55;44.40;;;-2.30;82.20;;;;;;5049792;28;20399;-71
2022/12/15 08:47:17;;;;;;;96.73;46.07;;;-2.20;84.10;;;;;;5050271;28;20377;-72
2022/12/15 08:49:43;;;;;;;92.00;44.45;;;-2.10;84.40;;;;;;5049125;28;20766;-72
2022/12/15 08:52:08;;;;;;;102.55;47.20;;;-2.10;83.90;;;;;;5037130;28;20391;-72
2022/12/15 08:54:34;;;;;;;89.53;45.10;;;-2.00;84.30;;;;;;5030859;28;20379;-72
2022/12/15 08:56:59;;;;;;;97.27;47.07;;;-1.90;79.90;;;;;;5048539;28;20492;-71
2022/12/15 08:59:25;;;;;;;93.10;44.03;;;-1.80;79.00;;;;;;5049864;28;20532;-72
2022/12/15 09:01:51;;;;;;;95.03;46.35;;;-1.70;76.60;;;;;;5044000;28;20737;-72
2022/12/15 09:04:16;;;;;;;98.83;46.67;;;-1.70;76.60;;;;;;5051538;28;20442;-72
2022/12/15 09:06:42;;;;;;;96.10;48.23;;;-1.60;75.40;;;;;;5051746;28;20389;-71
2022/12/15 09:09:11;;;;;;;100.35;48.33;;;-1.40;77.20;;;;;;5050508;28;20478;-72
2022/12/15 09:11:36;;;;;;;99.63;48.00;;;-1.40;74.10;;;;;;5049046;28;20878;-71
2022/12/15 09:14:02;;;;;;;100.03;49.43;;;-1.30;72.20;;;;;;5050048;28;20416;-71
2022/12/15 09:16:28;;;;;;;103.38;49.88;;;-1.30;71.70;;;;;;5050020;28;20429;-71
2022/12/15 09:18:56;;;;;;;116.07;51.53;;;-1.30;71.00;;;;;;5050263;28;20397;-72
2022/12/15 09:21:25;;;;;;;101.32;48.60;;;-1.20;74.40;;;;;;5049699;28;20393;-71
2022/12/15 09:23:53;;;;;;;98.93;47.30;;;-1.20;76.10;;;;;;5049993;28;20392;-71
2022/12/15 09:26:20;;;;;;;101.35;49.55;;;-1.20;69.90;;;;;;5049554;28;20401;-72
2022/12/15 09:28:46;;;;;;;92.78;47.75;;;-1.30;70.10;;;;;;5050245;28;20409;-71
2022/12/15 09:31:15;;;;;;;102.83;51.10;;;-1.10;72.10;;;;;;5049577;28;20435;-72
2022/12/15 09:33:42;;;;;;;108.70;50.30;;;-1.10;73.90;;;;;;5049804;28;20381;-72
2022/12/15 09:36:10;;;;;;;94.68;46.03;;;-1.00;71.40;;;;;;5048627;28;20397;-72
2022/12/15 09:38:39;;;;;;;102.13;49.55;;;-1.00;69.10;;;;;;5050309;28;20968;-71
2022/12/15 09:41:14;;;;;;;96.78;49.03;;;-1.00;72.20;;;;;;5049324;28;20412;-71
2022/12/15 09:44:03;;;;;;;108.20;51.28;;;-0.90;71.70;;;;;;5050025;28;20402;-74
2022/12/15 09:46:47;;;;;;;104.00;49.38;;;-0.80;71.20;;;;;;5049922;28;20535;-72
2022/12/15 09:49:35;;;;;;;99.15;49.20;;;-0.80;68.00;;;;;;5049381;28;20409;-72
2022/12/15 09:52:24;;;;;;;102.50;50.25;;;-0.80;68.50;;;;;;5046786;28;20381;-72
2022/12/15 09:54:49;;;;;;;105.38;51.50;;;-0.70;69.80;;;;;;5026672;28;20437;-72
2022/12/15 09:57:43;;;;;;;107.13;50.80;;;-0.70;70.10;;;;;;5030268;28;20460;-73
2022/12/15 10:00:37;;;;;;;113.28;53.83;;;-0.50;70.70;;;;;;5046958;28;20405;-70
2022/12/15 10:03:11;;;;;;;96.70;49.75;;;-0.20;70.30;;;;;;5048997;28;20405;-70
2022/12/15 10:05:45;;;;;;;97.60;48.92;;;-0.20;66.40;;;;;;5044910;28;20991;-71
2022/12/15 10:08:12;;;;;;;103.50;50.08;;;-0.30;66.00;;;;;;5031076;28;20965;-71
2022/12/15 10:10:41;;;;;;;109.57;52.22;;;-0.30;64.10;;;;;;5032599;28;20610;-70
2022/12/15 10:13:23;;;;;;;102.25;49.25;;;-0.30;65.80;;;;;;5035454;28;20425;-72
2022/12/15 10:15:57;;;;;;;106.93;51.08;;;-0.30;64.00;;;;;;5042924;28;20380;-71
2022/12/15 10:18:30;;;;;;;104.80;50.92;;;-0.30;63.80;;;;;;5052015;28;20893;-72
2022/12/15 10:20:58;;;;;;;107.90;51.55;;;-0.20;62.00;;;;;;5050516;28;20404;-71
2022/12/15 10:23:24;;;;;;;114.47;55.10;;;-0.20;62.10;;;;;;5050733;28;20761;-72
2022/12/15 10:25:59;;;;;;;112.63;52.85;;;-0.20;60.70;;;;;;5050572;28;20451;-74
2022/12/15 10:28:49;;;;;;;112.70;52.87;;;-0.20;61.20;;;;;;5051683;28;20374;-72
2022/12/15 10:31:24;;;;;;;107.20;52.88;;;-0.20;60.20;;;;;;5050928;28;20377;-72
2022/12/15 10:33:56;;;;;;;113.37;54.97;;;-0.20;58.90;;;;;;5051267;28;20451;-72
2022/12/15 10:36:22;;;;;;;107.63;52.30;;;-0.10;61.70;;;;;;5051844;28;20396;-73
2022/12/15 10:38:48;;;;;;;105.65;51.35;;;-0.10;60.80;;;;;;5051121;28;20390;-71
2022/12/15 10:41:19;;;;;;;110.90;51.83;;;-0.10;60.60;;;;;;5050598;28;20695;-73
2022/12/15 10:43:47;;;;;;;114.22;52.97;;;-0.20;58.60;;;;;;5052074;28;20749;-72
2022/12/15 10:46:20;;;;;;;114.25;53.95;;;-0.20;59.60;;;;;;5052259;28;20397;-72
2022/12/15 10:49:09;;;;;;;111.38;53.30;;;-0.30;62.10;;;;;;5055135;28;20405;-72
2022/12/15 10:51:50;;;;;;;111.40;53.33;;;-0.20;62.70;;;;;;5051962;28;20394;-71
2022/12/15 10:54:17;;;;;;;110.27;52.47;;;-0.10;63.30;;;;;;5061252;28;20437;-72
2022/12/15 10:56:53;;;;;;;107.00;51.95;;;-0.10;57.30;;;;;;5056854;28;20866;-72
2022/12/15 10:59:37;;;;;;;111.78;52.67;;;-0.20;58.70;;;;;;5060747;28;20451;-71
2022/12/15 11:02:23;;;;;;;111.55;52.17;;;0.00;56.40;;;;;;5062293;28;20395;-71
2022/12/15 11:05:01;;;;;;;113.23;54.10;;;-0.30;56.50;;;;;;5051502;28;20415;-71
2022/12/15 11:07:34;;;;;;;117.85;56.17;;;-0.30;58.20;;;;;;5050908;28;20377;-72
2022/12/15 11:10:09;;;;;;;125.10;57.40;;;-0.10;58.90;;;;;;5050697;28;20408;-72
2022/12/15 11:12:50;;;;;;;118.90;55.77;;;0.00;60.50;;;;;;5050054;28;20438;-73
2022/12/15 11:15:21;;;;;;;118.30;57.67;;;0.00;58.60;;;;;;5050730;28;20933;-72
2022/12/15 11:17:50;;;;;;;117.27;55.17;;;0.10;59.40;;;;;;5050488;28;20468;-71
2022/12/15 11:20:22;;;;;;;116.45;55.35;;;0.10;59.10;;;;;;5050365;28;20385;-72
2022/12/15 11:23:40;;;;;;;118.20;55.90;;;0.10;56.20;;;;;;5049676;28;20559;-71
2022/12/15 11:26:18;;;;;;;116.18;55.80;;;0.00;56.30;;;;;;5050660;28;20393;-72
2022/12/15 11:28:51;;;;;;;118.30;56.50;;;0.00;56.30;;;;;;5050508;28;20584;-74
2022/12/15 11:31:28;;;;;;;115.65;55.92;;;0.00;56.40;;;;;;5048508;28;20867;-72
2022/12/15 11:33:54;;;;;;;122.03;56.97;;;-0.10;56.20;;;;;;5050142;28;20386;-72
2022/12/15 11:36:39;;;;;;;128.77;59.08;;;-0.10;57.40;;;;;;5050174;28;20388;-72
2022/12/15 11:39:20;;;;;;;124.93;57.00;;;0.00;58.30;;;;;;5050440;28;20796;-72
2022/12/15 11:42:17;;;;;;;118.30;56.40;;;0.00;58.50;;;;;;5049553;28;20523;-72
2022/12/15 11:45:04;;;;;;;116.47;56.05;;;0.00;57.80;;;;;;5051210;28;20401;-72
2022/12/15 11:47:46;;;;;;;119.20;57.42;;;-0.10;57.50;;;;;;5050629;28;20413;-71
2022/12/15 11:50:32;;;;;;;122.10;59.05;;;0.00;58.20;;;;;;5050363;28;20409;-73
2022/12/15 11:53:26;;;;;;;116.18;57.83;;;0.30;57.50;;;;;;5049631;28;20378;-72
2022/12/15 11:56:10;;;;;;;127.38;62.42;;;0.20;57.60;;;;;;5050264;28;20381;-71
2022/12/15 11:58:51;;;;;;;123.22;60.10;;;0.30;56.70;;;;;;5049939;28;20877;-71
2022/12/15 12:01:52;;;;;;;113.78;58.15;;;0.30;57.20;;;;;;5049687;28;20527;-72
2022/12/15 12:04:29;;;;;;;126.63;58.75;;;0.20;57.00;;;;;;5050044;28;20397;-72
2022/12/15 12:07:00;;;;;;;125.40;58.63;;;0.10;56.00;;;;;;5049810;28;20469;-72
2022/12/15 12:09:28;;;;;;;119.93;58.55;;;0.10;57.30;;;;;;5049888;28;20401;-72
2022/12/15 12:12:17;;;;;;;123.38;57.80;;;0.10;58.50;;;;;;5048505;28;20750;-72
2022/12/15 12:15:00;;;;;;;126.15;58.30;;;0.10;59.20;;;;;;5047269;28;20466;-72
2022/12/15 12:17:46;;;;;;;124.25;61.15;;;0.30;58.00;;;;;;5053830;28;20373;-72
2022/12/15 12:20:19;;;;;;;129.90;60.72;;;0.30;56.70;;;;;;5053992;28;20401;-72
2022/12/15 12:23:03;;;;;;;123.78;59.13;;;0.40;56.00;;;;;;5053104;28;20385;-72
2022/12/15 12:25:34;;;;;;;125.22;60.40;;;0.40;54.70;;;;;;5054064;28;20389;-73
2022/12/15 12:28:01;;;;;;;132.70;62.40;;;0.50;55.30;;;;;;5053896;28;20385;-72
2022/12/15 12:30:38;;;;;;;127.30;59.38;;;0.50;54.90;;;;;;5053477;28;20905;-72
2022/12/15 12:33:30;;;;;;;118.00;59.30;;;0.60;55.20;;;;;;5052843;28;20847;-72
2022/12/15 12:36:03;;;;;;;116.95;57.55;;;0.40;54.80;;;;;;5053813;28;20417;-71
2022/12/15 12:38:36;;;;;;;126.23;57.30;;;0.40;54.80;;;;;;5053962;28;20467;-71
2022/12/15 12:41:10;;;;;;;115.70;56.80;;;0.30;55.10;;;;;;5053704;28;20458;-72
2022/12/15 12:43:54;;;;;;;114.38;54.95;;;0.30;55.00;;;;;;5052398;28;20401;-72
2022/12/15 12:46:22;;;;;;;140.48;63.20;;;0.20;53.60;;;;;;5053139;28;20931;-72
2022/12/15 12:48:57;;;;;;;113.80;56.00;;;0.10;55.00;;;;;;5053023;28;21076;-75
2022/12/15 12:51:28;;;;;;;116.20;55.55;;;0.10;57.70;;;;;;5052507;28;20423;-72
2022/12/15 12:53:55;;;;;;;117.80;56.40;;;0.10;57.50;;;;;;5052909;28;20388;-72
2022/12/15 12:56:44;;;;;;;119.73;55.50;;;0.00;57.10;;;;;;5053118;28;20782;-72
2022/12/15 12:59:27;;;;;;;116.40;57.47;;;0.00;57.20;;;;;;5053186;28;20389;-72
2022/12/15 13:01:54;;;;;;;110.47;54.20;;;-0.10;58.10;;;;;;5052149;28;20408;-72
2022/12/15 13:04:41;;;;;;;124.53;58.25;;;-0.10;59.40;;;;;;5052283;28;20402;-72
2022/12/15 13:07:36;;;;;;;119.13;55.70;;;-0.20;60.30;;;;;;5052758;28;20397;-72
2022/12/15 13:10:08;;;;;;;120.75;55.45;;;-0.20;59.00;;;;;;5052795;28;20413;-72
2022/12/15 13:12:53;;;;;;;111.80;55.00;;;-0.30;59.70;;;;;;5053662;28;20387;-72
2022/12/15 13:16:00;;;;;;;110.55;54.65;;;-0.40;61.20;;;;;;5053033;28;20819;-72
2022/12/15 13:18:26;;;;;;;107.93;52.60;;;-0.40;62.20;;;;;;5030499;28;20397;-71
2022/12/15 13:20:56;;;;;;;116.85;54.75;;;-0.50;62.90;;;;;;5052958;28;20858;-71
2022/12/15 13:23:25;;;;;;;108.70;52.87;;;-0.40;63.60;;;;;;5053038;28;20427;-72
2022/12/15 13:25:56;;;;;;;104.10;51.70;;;-0.40;62.80;;;;;;5052222;28;20378;-73
2022/12/15 13:28:37;;;;;;;111.63;52.03;;;-0.30;62.10;;;;;;5053926;28;20381;-71
2022/12/15 13:31:21;;;;;;;102.25;51.25;;;-0.40;61.80;;;;;;5053213;28;20385;-72
2022/12/15 13:33:50;;;;;;;108.53;50.70;;;-0.40;61.50;;;;;;5053545;28;20468;-72
2022/12/15 13:36:40;;;;;;;107.28;51.28;;;-0.50;62.20;;;;;;5053790;28;20377;-72
2022/12/15 13:39:11;;;;;;;105.97;52.10;;;-0.40;60.90;;;;;;5054998;28;20381;-71
2022/12/15 13:41:41;;;;;;;103.10;50.90;;;-0.40;61.10;;;;;;5055537;28;20522;-72
2022/12/15 13:44:24;;;;;;;115.30;50.50;;;-0.40;61.50;;;;;;5056127;28;20563;-72
2022/12/15 13:46:52;;;;;;;105.32;49.20;;;-0.40;61.40;;;;;;5058524;28;20393;-73
2022/12/15 13:49:35;;;;;;;101.82;49.08;;;-0.20;61.30;;;;;;5060328;28;20405;-72
2022/12/15 13:52:21;;;;;;;96.15;49.20;;;-0.30;61.70;;;;;;5060986;28;20408;-71
2022/12/15 13:54:59;;;;;;;99.55;48.55;;;-0.30;61.50;;;;;;5060831;28;20893;-71
2022/12/15 13:57:29;;;;;;;106.77;49.73;;;-0.30;61.70;;;;;;5057734;28;20433;-72
2022/12/15 14:00:04;;;;;;;105.97;48.88;;;-0.40;63.40;;;;;;5052473;28;20381;-72
2022/12/15 14:02:32;;;;;;;101.80;48.45;;;-0.30;62.40;;;;;;5051748;28;20381;-72
2022/12/15 14:05:21;;;;;;;95.88;45.97;;;-0.30;62.80;;;;;;5051857;28;20393;-73
2022/12/15 14:07:48;;;;;;;100.38;47.95;;;-0.30;61.80;;;;;;5052338;28;20386;-72
2022/12/15 14:10:23;;;;;;;86.93;45.55;;;-0.30;61.90;;;;;;5052335;28;20409;-72
2022/12/15 14:12:51;;;;;;;101.65;47.40;;;-0.30;61.30;;;;;;5051359;28;20404;-71
2022/12/15 14:15:21;;;;;;;84.50;44.65;;;-0.10;61.70;;;;;;5052128;28;20385;-73
2022/12/15 14:17:51;;;;;;;91.45;43.63;;;0.20;59.60;;;;;;5052259;28;20777;-73
2022/12/15 14:20:25;;;;;;;88.60;44.45;;;0.50;57.40;;;;;;5052244;28;20756;-72
2022/12/15 14:22:53;;;;;;;86.80;42.90;;;0.70;54.60;;;;;;5051634;28;20902;-72
2022/12/15 14:25:22;;;;;;;85.77;43.50;;;0.90;52.00;;;;;;5050734;28;20508;-72
2022/12/15 14:27:49;;;;;;;84.40;43.40;;;1.00;49.20;;;;;;5051722;28;20420;-74
2022/12/15 14:30:24;;;;;;;82.88;44.10;;;1.00;48.90;;;;;;5052302;28;20496;-73
2022/12/15 14:33:00;;;;;;;82.50;43.47;;;1.20;47.40;;;;;;5050867;28;20456;-72
2022/12/15 14:35:35;;;;;;;75.88;42.03;;;1.20;46.10;;;;;;5052527;28;20461;-72
2022/12/15 14:38:05;;;;;;;81.30;43.65;;;1.30;45.90;;;;;;5052050;28;20447;-72
2022/12/15 14:40:35;;;;;;;82.68;43.15;;;1.30;45.00;;;;;;5051780;28;20472;-72
2022/12/15 14:43:01;;;;;;;82.53;43.47;;;1.30;45.00;;;;;;5066893;23;20396;-76
2022/12/15 14:45:30;;;;;;;81.68;42.65;;;1.30;44.80;;;;;;5094009;28;20470;-76
2022/12/15 14:48:01;;;;;;;80.38;42.00;;;1.30;43.90;;;;;;5087050;28;20392;-77
2022/12/15 14:50:27;;;;;;;80.13;42.70;;;1.10;43.70;;;;;;5076702;28;20703;-76
2022/12/15 14:53:00;;;;;;;83.33;43.90;;;0.70;45.40;;;;;;5074236;28;20378;-76
2022/12/15 14:55:37;;;;;;;81.53;43.25;;;0.30;48.10;;;;;;5072803;28;20387;-76
2022/12/15 14:58:31;;;;;;;80.28;42.85;;;-0.10;51.10;;;;;;5070988;28;20760;-77
2022/12/15 15:00:57;;;;;;;90.32;44.45;;;-0.40;53.70;;;;;;5073385;28;20941;-76
2022/12/15 15:03:39;;;;;;;86.75;45.30;;;-0.60;55.70;;;;;;5072565;28;20376;-75
2022/12/15 15:06:17;;;;;;;84.40;42.70;;;-0.80;57.60;;;;;;5073533;28;20402;-77